Time;durP1;ratioP1;P1;durP2;ratioP2;P2;SDS_P1;SDS_P2;PMS_P1;PMS_P2;Temp;Humidity;BMP_temperature;BMP_pressure;BME280_temperature;BME280_humidity;BME280_pressure;Samples;Min_cycle;Max_cycle;Signal;HPM_P1;HPM_P2
2021/03/29 00:01:25;;;;;;;11.95;10.48;;;7.60;99.90;;;;;;5021372;28;20051;-68
2021/03/29 00:03:53;;;;;;;14.70;10.45;;;7.60;99.90;;;;;;5013170;28;20069;-68
2021/03/29 00:06:20;;;;;;;15.43;10.25;;;7.50;99.90;;;;;;4997370;28;20092;-68
2021/03/29 00:08:48;;;;;;;15.10;9.98;;;7.50;99.90;;;;;;5011962;28;20052;-68
2021/03/29 00:11:17;;;;;;;11.55;9.73;;;7.50;99.90;;;;;;5029920;28;20487;-68
2021/03/29 00:13:45;;;;;;;12.60;10.23;;;7.40;99.90;;;;;;5023098;28;20053;-68
2021/03/29 00:16:14;;;;;;;16.25;11.07;;;7.40;99.90;;;;;;5030905;28;20045;-68
2021/03/29 00:18:42;;;;;;;20.48;15.32;;;7.40;99.90;;;;;;5034597;28;20141;-68
2021/03/29 00:21:09;;;;;;;16.17;11.43;;;7.40;99.90;;;;;;5031749;28;20057;-68
2021/03/29 00:23:37;;;;;;;15.40;10.18;;;7.30;99.90;;;;;;5022343;28;20088;-68
2021/03/29 00:26:09;;;;;;;;;;;7.30;99.90;;;;;;5026025;28;20064;-68
2021/03/29 00:28:38;;;;;;;14.50;9.65;;;7.20;99.90;;;;;;5031372;28;20586;-68
2021/03/29 00:31:06;;;;;;;10.85;9.80;;;7.20;99.90;;;;;;5030873;28;20041;-68
2021/03/29 00:33:34;;;;;;;12.75;9.77;;;7.20;99.90;;;;;;5046191;28;20091;-68
2021/03/29 00:36:02;;;;;;;10.68;9.57;;;7.10;99.90;;;;;;5035976;28;20050;-68
2021/03/29 00:38:30;;;;;;;11.63;9.60;;;7.10;99.90;;;;;;5027579;28;20080;-67
2021/03/29 00:41:00;;;;;;;13.50;10.27;;;7.10;99.90;;;;;;5031198;28;20042;-67
2021/03/29 00:43:35;;;;;;;10.15;9.10;;;7.10;99.90;;;;;;5031694;28;20132;-67
2021/03/29 00:46:04;;;;;;;13.00;10.25;;;7.10;99.90;;;;;;5031141;28;20107;-67
2021/03/29 00:48:33;;;;;;;10.52;9.45;;;7.20;99.90;;;;;;5016991;28;20523;-67
2021/03/29 00:51:12;;;;;;;13.82;10.23;;;7.20;99.90;;;;;;5028407;28;20079;-67
2021/03/29 00:53:46;;;;;;;13.55;9.63;;;7.20;99.90;;;;;;5013072;28;20103;-67
2021/03/29 00:56:15;;;;;;;12.07;9.90;;;7.10;99.90;;;;;;5031150;28;20063;-67
2021/03/29 00:58:47;;;;;;;12.82;9.82;;;7.10;99.90;;;;;;5031001;28;20077;-67
2021/03/29 01:01:18;;;;;;;11.35;9.52;;;7.10;99.90;;;;;;5027523;28;20049;-67
2021/03/29 01:03:53;;;;;;;11.10;9.88;;;7.00;99.90;;;;;;5033600;28;20075;-68
2021/03/29 01:06:23;;;;;;;12.85;9.93;;;7.00;99.90;;;;;;5034127;28;20095;-68
2021/03/29 01:08:54;;;;;;;12.25;10.00;;;7.00;99.90;;;;;;5033910;28;20080;-68
2021/03/29 01:11:27;;;;;;;13.57;9.67;;;7.10;99.90;;;;;;5034733;28;20061;-68
2021/03/29 01:14:01;;;;;;;12.10;9.68;;;7.10;99.90;;;;;;5033529;28;20859;-68
2021/03/29 01:16:35;;;;;;;10.98;9.07;;;7.10;99.90;;;;;;5028123;28;20037;-68
2021/03/29 01:19:09;;;;;;;14.35;9.80;;;7.10;99.90;;;;;;5048848;28;20057;-68
2021/03/29 01:21:40;;;;;;;17.70;10.27;;;7.20;99.90;;;;;;5033885;28;20050;-68
2021/03/29 01:24:54;;;;;;;10.32;9.25;;;7.10;99.90;;;;;;5039790;28;20038;-68
2021/03/29 01:27:27;;;;;;;12.02;9.63;;;7.10;99.90;;;;;;5016700;28;20484;-68
2021/03/29 01:29:56;;;;;;;11.98;9.85;;;7.10;99.90;;;;;;5029465;28;20460;-68
2021/03/29 01:32:24;;;;;;;11.38;9.55;;;7.10;99.90;;;;;;5030248;28;20041;-68
2021/03/29 01:34:52;;;;;;;11.15;9.40;;;7.00;99.90;;;;;;5012435;28;20038;-68
2021/03/29 01:37:20;;;;;;;10.70;9.20;;;7.00;99.90;;;;;;5024746;28;20456;-68
2021/03/29 01:39:49;;;;;;;10.40;9.40;;;7.00;99.90;;;;;;5013688;28;20499;-68
2021/03/29 01:42:17;;;;;;;11.73;9.77;;;7.00;99.90;;;;;;5022097;28;20085;-68
2021/03/29 01:44:45;;;;;;;11.73;8.82;;;6.90;99.90;;;;;;5013221;28;20045;-68
2021/03/29 01:47:12;;;;;;;14.20;10.77;;;6.80;99.90;;;;;;5011950;28;20046;-67
2021/03/29 01:49:39;;;;;;;20.70;13.15;;;6.80;99.90;;;;;;5030373;28;20083;-67
2021/03/29 01:52:07;;;;;;;18.75;12.13;;;6.80;99.90;;;;;;5031426;28;20451;-68
2021/03/29 01:54:35;;;;;;;15.13;9.68;;;6.70;99.90;;;;;;5010948;28;20059;-68
2021/03/29 01:57:08;;;;;;;14.07;9.57;;;6.70;99.90;;;;;;5028196;28;20076;-68
2021/03/29 01:59:36;;;;;;;12.27;8.95;;;6.60;99.90;;;;;;5044363;28;20045;-68
2021/03/29 02:02:05;;;;;;;10.65;8.50;;;6.60;99.90;;;;;;5027777;28;20069;-68
2021/03/29 02:04:33;;;;;;;10.98;9.15;;;6.60;99.90;;;;;;5032128;28;20149;-68
2021/03/29 02:07:06;;;;;;;13.00;8.70;;;6.60;99.90;;;;;;5048262;28;20130;-68
2021/03/29 02:09:34;;;;;;;11.32;8.80;;;6.50;99.90;;;;;;5030827;28;20053;-68
2021/03/29 02:12:07;;;;;;;11.85;9.00;;;6.50;99.90;;;;;;5032440;28;20045;-68
2021/03/29 02:14:34;;;;;;;;;;;6.50;99.90;;;;;;5027144;28;20053;-67
2021/03/29 02:17:05;;;;;;;11.82;9.32;;;6.50;99.90;;;;;;5032965;28;20341;-67
2021/03/29 02:19:33;;;;;;;11.82;9.00;;;6.60;99.90;;;;;;5031096;28;20102;-67
2021/03/29 02:22:02;;;;;;;10.02;8.65;;;6.60;99.90;;;;;;5031668;28;20058;-67
2021/03/29 02:24:29;;;;;;;13.13;9.50;;;6.70;99.90;;;;;;5030157;28;20049;-67
2021/03/29 02:26:58;;;;;;;10.48;8.82;;;6.70;99.90;;;;;;5029320;28;20068;-67
2021/03/29 02:29:28;;;;;;;13.10;8.80;;;6.80;99.90;;;;;;5032028;28;20057;-67
2021/03/29 02:31:57;;;;;;;12.60;9.50;;;6.80;99.90;;;;;;5030642;28;20045;-68
2021/03/29 02:34:25;;;;;;;11.30;8.98;;;6.80;99.90;;;;;;5032228;28;20140;-68
2021/03/29 02:36:54;;;;;;;10.75;9.65;;;6.90;99.90;;;;;;5031891;28;20046;-68
2021/03/29 02:39:21;;;;;;;14.27;9.45;;;6.90;99.90;;;;;;5032154;28;20096;-68
2021/03/29 02:41:50;;;;;;;13.00;8.80;;;6.90;99.90;;;;;;5030710;28;20080;-67
2021/03/29 02:44:18;;;;;;;11.50;8.77;;;6.90;99.90;;;;;;5032507;28;20057;-69
2021/03/29 02:46:48;;;;;;;12.00;8.93;;;6.90;99.90;;;;;;5030934;28;20053;-68
2021/03/29 02:49:17;;;;;;;10.98;9.02;;;7.00;99.90;;;;;;5031755;28;20045;-68
2021/03/29 02:51:47;;;;;;;11.40;9.38;;;7.00;99.90;;;;;;5030719;28;20049;-67
2021/03/29 02:54:15;;;;;;;10.02;8.75;;;6.90;99.90;;;;;;5023231;28;20144;-68
2021/03/29 02:56:45;;;;;;;14.10;9.05;;;6.90;99.90;;;;;;5031819;28;20049;-68
2021/03/29 02:59:18;;;;;;;11.40;8.77;;;6.90;99.90;;;;;;5010517;28;20037;-68
2021/03/29 03:01:47;;;;;;;16.92;9.60;;;6.80;99.90;;;;;;5028393;28;20041;-68
2021/03/29 03:04:16;;;;;;;11.20;9.93;;;6.80;99.90;;;;;;5030957;28;20050;-68
2021/03/29 03:06:46;;;;;;;12.20;10.40;;;6.70;99.90;;;;;;5031415;28;20045;-67
2021/03/29 03:09:14;;;;;;;14.65;10.63;;;6.70;99.90;;;;;;5031564;28;20042;-67
2021/03/29 03:11:45;;;;;;;14.85;9.52;;;6.60;99.90;;;;;;5020753;28;20049;-68
2021/03/29 03:14:12;;;;;;;11.37;9.70;;;6.60;99.90;;;;;;5031241;28;20053;-68
2021/03/29 03:16:40;;;;;;;11.95;9.00;;;6.60;99.90;;;;;;5019751;28;20045;-67
2021/03/29 03:19:07;;;;;;;10.43;9.15;;;6.50;99.90;;;;;;5031836;28;20128;-66
2021/03/29 03:21:35;;;;;;;10.43;9.32;;;6.50;99.90;;;;;;5012541;28;20148;-67
2021/03/29 03:24:03;;;;;;;10.63;8.73;;;6.40;99.90;;;;;;5029819;28;20172;-68
2021/03/29 03:26:31;;;;;;;10.50;9.30;;;6.40;99.90;;;;;;5030266;28;20050;-67
2021/03/29 03:29:00;;;;;;;13.23;9.35;;;6.30;99.90;;;;;;5014543;28;20053;-67
2021/03/29 03:31:27;;;;;;;12.65;8.35;;;6.30;99.90;;;;;;5029178;28;20135;-67
2021/03/29 03:33:55;;;;;;;10.65;9.02;;;6.20;99.90;;;;;;5029883;28;20133;-67
2021/03/29 03:36:24;;;;;;;10.80;9.35;;;6.20;99.90;;;;;;5027389;28;20421;-68
2021/03/29 03:38:52;;;;;;;10.45;8.27;;;6.20;99.90;;;;;;5029558;28;20041;-68
2021/03/29 03:41:29;;;;;;;13.45;8.98;;;6.20;99.90;;;;;;5028612;28;20054;-67
2021/03/29 03:43:57;;;;;;;11.77;9.02;;;6.10;99.90;;;;;;5028669;28;20084;-67
2021/03/29 03:46:27;;;;;;;11.63;8.73;;;6.10;99.90;;;;;;5038590;28;20080;-67
2021/03/29 03:49:00;;;;;;;13.48;9.07;;;6.10;99.90;;;;;;5029606;28;20042;-67
2021/03/29 03:51:27;;;;;;;10.63;9.50;;;6.10;99.90;;;;;;5045954;28;20050;-67
2021/03/29 03:53:54;;;;;;;11.48;9.00;;;6.10;99.90;;;;;;5029564;28;20454;-68
2021/03/29 03:56:22;;;;;;;13.02;8.52;;;6.00;99.90;;;;;;5028913;28;20400;-68
2021/03/29 03:58:53;;;;;;;11.45;9.10;;;6.10;99.90;;;;;;5030022;28;20096;-68
2021/03/29 04:01:21;;;;;;;13.63;9.60;;;6.10;99.90;;;;;;5017322;28;20508;-68
2021/03/29 04:03:48;;;;;;;10.18;8.60;;;6.10;99.90;;;;;;5019137;28;20136;-68
2021/03/29 04:06:15;;;;;;;13.27;10.10;;;6.00;99.90;;;;;;5024720;28;20054;-68
2021/03/29 04:08:44;;;;;;;12.90;10.27;;;6.00;99.90;;;;;;5024149;28;20128;-68
2021/03/29 04:11:12;;;;;;;9.35;8.45;;;6.00;99.90;;;;;;5027136;28;20073;-69
2021/03/29 04:13:40;;;;;;;10.77;9.00;;;6.00;99.90;;;;;;5027221;28;20535;-68
2021/03/29 04:16:08;;;;;;;13.55;9.73;;;6.00;99.90;;;;;;5045844;28;20049;-68
2021/03/29 04:18:35;;;;;;;16.38;9.18;;;6.00;99.90;;;;;;5025620;28;20057;-68
2021/03/29 04:21:04;;;;;;;11.27;9.00;;;6.00;99.90;;;;;;5029079;28;20111;-67
2021/03/29 04:23:45;;;;;;;10.43;9.20;;;6.00;99.90;;;;;;5025186;28;20518;-68
2021/03/29 04:26:12;;;;;;;13.85;9.10;;;5.90;99.90;;;;;;5032721;28;20475;-68
2021/03/29 04:28:39;;;;;;;10.90;9.75;;;5.90;99.90;;;;;;5030055;28;20459;-68
2021/03/29 04:31:06;;;;;;;11.55;9.13;;;5.90;99.90;;;;;;5030588;28;20508;-67
2021/03/29 04:33:33;;;;;;;15.18;9.10;;;5.90;99.90;;;;;;5023951;28;20103;-67
2021/03/29 04:35:59;;;;;;;13.00;8.98;;;5.90;99.90;;;;;;5009197;28;20509;-67
2021/03/29 04:38:27;;;;;;;12.65;8.88;;;5.90;99.90;;;;;;5023066;28;20045;-67
2021/03/29 04:40:54;;;;;;;11.60;9.15;;;5.90;99.90;;;;;;5025244;28;20045;-68
2021/03/29 04:43:21;;;;;;;14.60;9.23;;;5.80;99.90;;;;;;5012509;28;20054;-68
2021/03/29 04:45:48;;;;;;;11.23;8.88;;;5.80;99.90;;;;;;5027778;28;20113;-68
2021/03/29 04:48:15;;;;;;;10.43;8.68;;;5.80;99.90;;;;;;5031808;28;20131;-68
2021/03/29 04:50:42;;;;;;;17.60;9.35;;;5.80;99.90;;;;;;5022022;28;20053;-68
2021/03/29 04:53:09;;;;;;;14.07;9.90;;;5.80;99.90;;;;;;5029511;28;20073;-67
2021/03/29 04:55:36;;;;;;;12.40;9.15;;;5.80;99.90;;;;;;5028023;28;20808;-67
2021/03/29 04:58:03;;;;;;;11.20;8.95;;;5.80;99.90;;;;;;5021725;28;20042;-68
2021/03/29 05:00:30;;;;;;;13.13;9.38;;;5.80;99.90;;;;;;5018723;28;20109;-67
2021/03/29 05:02:57;;;;;;;12.15;9.52;;;5.70;99.90;;;;;;5024243;28;20587;-69
2021/03/29 05:05:24;;;;;;;14.38;9.07;;;5.70;99.90;;;;;;5027203;28;20045;-69
2021/03/29 05:07:51;;;;;;;13.75;9.50;;;5.80;99.90;;;;;;5023164;28;20108;-68
2021/03/29 05:10:18;;;;;;;12.38;8.80;;;5.80;99.90;;;;;;5031691;28;20052;-68
2021/03/29 05:12:45;;;;;;;15.63;9.10;;;5.80;99.90;;;;;;5047737;28;20569;-67
2021/03/29 05:15:13;;;;;;;12.63;8.85;;;5.90;99.90;;;;;;5039397;28;20037;-68
2021/03/29 05:17:40;;;;;;;14.70;8.32;;;5.90;99.90;;;;;;5027238;28;20482;-68
2021/03/29 05:20:09;;;;;;;11.20;8.30;;;6.00;99.90;;;;;;5031180;28;20095;-67
2021/03/29 05:22:36;;;;;;;13.02;8.20;;;6.10;99.90;;;;;;5033495;28;20049;-68
2021/03/29 05:25:04;;;;;;;14.45;9.52;;;6.10;99.90;;;;;;5032335;28;20073;-67
2021/03/29 05:27:30;;;;;;;12.02;9.32;;;6.20;99.90;;;;;;5029031;28;20042;-68
2021/03/29 05:29:57;;;;;;;11.20;9.13;;;6.30;99.90;;;;;;5026994;28;20526;-67
2021/03/29 05:32:26;;;;;;;15.23;9.68;;;6.30;99.90;;;;;;5021206;28;20092;-68
2021/03/29 05:34:58;;;;;;;14.18;9.40;;;6.40;99.90;;;;;;5016514;28;20077;-69
2021/03/29 05:37:25;;;;;;;15.20;9.63;;;6.50;99.90;;;;;;5013132;28;20050;-69
2021/03/29 05:39:54;;;;;;;14.25;9.40;;;6.60;99.90;;;;;;5026937;28;20075;-68
2021/03/29 05:42:22;;;;;;;13.43;9.90;;;6.70;99.90;;;;;;5015179;28;20061;-68
2021/03/29 05:44:53;;;;;;;10.75;9.27;;;6.80;99.90;;;;;;5021171;28;20397;-68
2021/03/29 05:47:20;;;;;;;13.88;9.35;;;6.90;99.90;;;;;;5021898;28;20085;-68
2021/03/29 05:49:53;;;;;;;13.77;10.03;;;7.00;99.90;;;;;;5032967;28;20077;-68
2021/03/29 05:52:20;;;;;;;14.32;8.80;;;7.20;99.90;;;;;;5047062;28;20054;-67
2021/03/29 05:54:47;;;;;;;14.05;9.60;;;7.30;99.90;;;;;;5032608;28;20053;-68
2021/03/29 05:57:16;;;;;;;11.77;9.57;;;7.50;99.90;;;;;;5030084;28;20117;-68
2021/03/29 05:59:43;;;;;;;13.85;9.80;;;7.60;99.90;;;;;;5029469;28;20099;-68
2021/03/29 06:02:24;;;;;;;16.05;10.02;;;7.70;99.90;;;;;;5029593;28;20152;-67
2021/03/29 06:04:51;;;;;;;12.30;9.93;;;7.80;99.90;;;;;;5026176;28;20057;-67
2021/03/29 06:07:29;;;;;;;16.38;10.30;;;8.00;99.90;;;;;;5020712;28;20049;-67
2021/03/29 06:10:07;;;;;;;13.63;9.75;;;7.90;99.90;;;;;;5016776;28;20050;-67
2021/03/29 06:12:46;;;;;;;18.38;10.18;;;8.00;99.90;;;;;;5033251;28;20133;-68
2021/03/29 06:15:14;;;;;;;12.98;10.25;;;8.00;99.90;;;;;;5030115;28;20044;-67
2021/03/29 06:17:41;;;;;;;14.15;10.32;;;8.00;99.90;;;;;;5018103;28;20501;-68
2021/03/29 06:20:08;;;;;;;13.63;10.18;;;7.90;99.90;;;;;;5014812;28;20461;-68
2021/03/29 06:22:42;;;;;;;16.88;11.05;;;8.00;99.90;;;;;;5019921;28;20041;-68
2021/03/29 06:25:14;;;;;;;16.67;10.55;;;8.00;99.90;;;;;;5014644;28;20087;-68
2021/03/29 06:27:55;;;;;;;19.05;12.45;;;8.00;99.90;;;;;;5020410;28;20099;-68
2021/03/29 06:30:32;;;;;;;15.80;10.47;;;8.00;99.90;;;;;;5004686;28;20058;-68
2021/03/29 06:33:08;;;;;;;18.02;11.27;;;8.00;99.90;;;;;;5029442;28;20507;-68
2021/03/29 06:36:01;;;;;;;19.77;10.60;;;8.10;99.90;;;;;;5030915;28;20095;-68
2021/03/29 06:38:33;;;;;;;16.77;10.57;;;8.20;99.90;;;;;;5016580;28;20057;-68
2021/03/29 06:41:02;;;;;;;15.48;9.95;;;8.30;99.90;;;;;;5046154;28;20046;-68
2021/03/29 06:43:38;;;;;;;17.48;10.65;;;8.50;99.90;;;;;;5029703;28;20049;-68
2021/03/29 06:46:26;;;;;;;13.77;10.10;;;8.60;99.90;;;;;;5030428;28;20053;-68
2021/03/29 06:48:55;;;;;;;13.57;10.63;;;8.90;99.90;;;;;;5030423;28;20076;-68
2021/03/29 06:51:26;;;;;;;15.38;11.02;;;9.20;99.90;;;;;;5033369;28;20407;-68
2021/03/29 06:53:56;;;;;;;13.15;10.52;;;9.40;99.90;;;;;;5033376;28;20099;-68
2021/03/29 06:56:34;;;;;;;16.83;10.50;;;9.70;99.90;;;;;;5030053;28;20049;-68
2021/03/29 06:59:04;;;;;;;13.25;10.43;;;9.90;99.90;;;;;;5030643;28;20042;-68
2021/03/29 07:01:33;;;;;;;14.27;10.20;;;10.10;99.90;;;;;;5017134;28;20487;-68
2021/03/29 07:03:59;;;;;;;16.35;10.00;;;10.10;99.90;;;;;;5012769;28;20072;-68
2021/03/29 07:06:29;;;;;;;15.98;10.80;;;10.30;99.90;;;;;;5012472;28;20062;-68
2021/03/29 07:09:04;;;;;;;11.85;9.88;;;10.50;99.90;;;;;;5047301;28;20041;-68
2021/03/29 07:11:33;;;;;;;13.35;10.02;;;10.60;99.90;;;;;;5026884;28;20065;-68
2021/03/29 07:14:02;;;;;;;15.18;10.50;;;10.80;99.90;;;;;;5013974;28;20057;-68
2021/03/29 07:16:30;;;;;;;14.45;10.38;;;11.00;99.90;;;;;;5022213;28;20061;-68
2021/03/29 07:18:58;;;;;;;15.68;9.65;;;11.20;99.90;;;;;;5028813;28;20045;-68
2021/03/29 07:21:26;;;;;;;15.55;10.23;;;11.20;99.90;;;;;;5030016;28;20064;-69
2021/03/29 07:23:59;;;;;;;12.23;10.05;;;11.40;99.90;;;;;;5046472;28;20049;-68
2021/03/29 07:26:38;;;;;;;13.07;10.13;;;11.40;99.90;;;;;;5024242;28;20111;-68
2021/03/29 07:29:21;;;;;;;13.63;10.15;;;11.60;99.90;;;;;;5019171;28;20174;-68
2021/03/29 07:31:59;;;;;;;16.90;10.27;;;11.70;99.90;;;;;;5020376;28;20080;-68
2021/03/29 07:34:49;;;;;;;16.67;10.95;;;11.70;99.90;;;;;;5037089;28;20455;-68
2021/03/29 07:37:40;;;;;;;14.15;10.13;;;11.70;99.90;;;;;;5036141;28;20046;-68
2021/03/29 07:40:19;;;;;;;15.65;10.00;;;11.70;99.90;;;;;;5029423;28;20053;-68
2021/03/29 07:42:59;;;;;;;16.15;10.20;;;11.80;99.90;;;;;;5029784;28;20495;-69
2021/03/29 07:45:40;;;;;;;15.52;10.65;;;12.00;99.90;;;;;;5022764;28;20131;-68
2021/03/29 07:48:07;;;;;;;12.38;9.85;;;12.30;99.90;;;;;;5027001;28;20042;-68
2021/03/29 07:50:34;;;;;;;12.20;9.30;;;12.30;99.90;;;;;;5026422;28;20045;-68
2021/03/29 07:53:07;;;;;;;13.70;9.80;;;12.40;99.90;;;;;;5028885;28;22456;-69
2021/03/29 07:55:47;;;;;;;10.45;9.45;;;12.20;99.90;;;;;;5028245;28;20100;-69
2021/03/29 07:58:20;;;;;;;16.45;8.90;;;12.40;99.90;;;;;;5044375;28;20052;-69
2021/03/29 08:01:00;;;;;;;11.77;9.43;;;12.40;99.90;;;;;;5017352;28;20518;-69
2021/03/29 08:03:27;;;;;;;12.55;9.20;;;12.60;99.90;;;;;;5030434;28;20076;-68
2021/03/29 08:05:54;;;;;;;14.13;9.95;;;12.70;99.90;;;;;;5004562;28;20048;-68
2021/03/29 08:08:24;;;;;;;14.73;9.65;;;12.70;99.90;;;;;;5031576;28;20411;-69
2021/03/29 08:10:56;;;;;;;15.55;10.10;;;12.60;99.90;;;;;;5031825;28;20057;-68
2021/03/29 08:13:56;;;;;;;13.30;9.75;;;12.50;99.90;;;;;;5031958;28;20046;-68
2021/03/29 08:16:28;;;;;;;16.08;9.68;;;12.30;99.90;;;;;;5034199;28;20050;-69
2021/03/29 08:19:25;;;;;;;12.23;9.50;;;12.30;99.90;;;;;;5033635;28;20045;-68
2021/03/29 08:22:00;;;;;;;11.75;9.60;;;12.10;99.90;;;;;;5028795;28;20408;-69
2021/03/29 08:24:41;;;;;;;13.98;9.50;;;12.20;99.90;;;;;;5033811;28;20045;-68
2021/03/29 08:27:30;;;;;;;12.00;9.57;;;12.30;99.90;;;;;;5029395;28;20056;-68
2021/03/29 08:30:14;;;;;;;11.68;9.52;;;12.30;99.90;;;;;;5033482;28;20195;-68
2021/03/29 08:32:41;;;;;;;10.65;9.23;;;12.40;99.90;;;;;;5032848;28;20504;-69
2021/03/29 08:35:09;;;;;;;12.65;9.30;;;12.50;99.90;;;;;;5025070;28;20045;-68
2021/03/29 08:37:40;;;;;;;15.48;9.10;;;12.50;99.90;;;;;;5027362;28;20053;-69
2021/03/29 08:40:12;;;;;;;13.23;8.85;;;12.60;99.90;;;;;;5032881;28;20095;-69
2021/03/29 08:42:40;;;;;;;10.52;9.07;;;12.60;99.90;;;;;;5026389;28;20563;-70
2021/03/29 08:45:12;;;;;;;11.73;8.57;;;12.70;99.90;;;;;;5031774;28;20467;-71
2021/03/29 08:47:41;;;;;;;14.23;9.10;;;12.80;99.90;;;;;;5034022;28;20286;-68
2021/03/29 08:50:14;;;;;;;10.32;9.25;;;13.00;99.90;;;;;;5032961;28;20484;-68
2021/03/29 08:52:41;;;;;;;14.02;10.30;;;13.10;99.90;;;;;;5032778;28;20041;-66
2021/03/29 08:55:09;;;;;;;12.88;10.00;;;13.30;99.90;;;;;;5024601;28;20048;-70
2021/03/29 08:57:37;;;;;;;17.33;10.52;;;13.30;99.90;;;;;;5031912;28;20052;-68
2021/03/29 09:00:12;;;;;;;13.57;9.30;;;13.50;99.90;;;;;;5031762;28;20439;-70
2021/03/29 09:02:40;;;;;;;12.85;9.38;;;13.50;99.90;;;;;;5021493;28;20061;-71
2021/03/29 09:05:10;;;;;;;14.27;9.57;;;13.50;99.90;;;;;;5029162;28;20369;-68
2021/03/29 09:07:44;;;;;;;12.57;9.20;;;13.60;99.90;;;;;;5033551;28;20053;-67
2021/03/29 09:10:35;;;;;;;10.82;8.88;;;13.70;99.90;;;;;;5020077;28;20405;-69
2021/03/29 09:13:15;;;;;;;20.42;9.25;;;13.70;99.90;;;;;;5022611;28;20514;-67
2021/03/29 09:15:51;;;;;;;13.13;9.20;;;13.80;99.90;;;;;;5039520;28;20038;-70
2021/03/29 09:18:23;;;;;;;11.55;8.45;;;14.00;99.90;;;;;;5029167;28;20127;-67
2021/03/29 09:20:52;;;;;;;12.00;8.43;;;14.20;99.90;;;;;;5030213;28;20527;-68
2021/03/29 09:23:22;;;;;;;11.30;9.30;;;14.20;99.90;;;;;;5032275;28;20046;-68
2021/03/29 09:25:51;;;;;;;10.85;8.98;;;14.40;99.90;;;;;;5023086;28;20045;-68
2021/03/29 09:28:39;;;;;;;9.98;8.52;;;14.60;99.90;;;;;;5031453;28;20076;-68
2021/03/29 09:31:32;;;;;;;10.00;8.80;;;14.70;99.90;;;;;;5031234;28;20561;-68
2021/03/29 09:33:59;;;;;;;10.15;9.15;;;14.80;99.90;;;;;;5032492;28;20049;-68
2021/03/29 09:36:26;;;;;;;11.23;9.40;;;14.90;99.90;;;;;;5023018;28;20068;-68
2021/03/29 09:38:56;;;;;;;10.00;8.70;;;14.90;99.90;;;;;;5031713;28;20475;-68
2021/03/29 09:41:33;;;;;;;9.82;8.90;;;14.90;99.90;;;;;;5016291;28;20049;-68
2021/03/29 09:44:07;;;;;;;10.25;8.75;;;15.10;99.90;;;;;;5031817;28;20049;-69
2021/03/29 09:46:38;;;;;;;11.90;9.15;;;15.20;99.90;;;;;;5030949;28;20049;-68
2021/03/29 09:49:08;;;;;;;11.18;8.70;;;15.30;99.90;;;;;;5032037;28;20064;-68
2021/03/29 09:51:35;;;;;;;12.07;9.13;;;15.40;99.90;;;;;;5030921;28;20500;-67
2021/03/29 09:54:24;;;;;;;11.90;9.10;;;15.40;99.50;;;;;;5031442;28;20124;-68
2021/03/29 09:56:52;;;;;;;12.57;9.18;;;15.50;98.50;;;;;;5028949;28;20097;-69
2021/03/29 09:59:34;;;;;;;11.07;8.32;;;15.50;98.80;;;;;;5031092;28;20042;-67
2021/03/29 10:02:14;;;;;;;9.95;8.82;;;15.50;98.90;;;;;;5027762;28;20099;-68
2021/03/29 10:04:42;;;;;;;12.30;9.05;;;15.50;98.60;;;;;;5028038;28;20580;-68
2021/03/29 10:07:16;;;;;;;12.55;9.25;;;15.70;98.30;;;;;;5028339;28;20041;-67
2021/03/29 10:09:47;;;;;;;11.45;9.38;;;15.70;97.50;;;;;;5032764;28;20060;-67
2021/03/29 10:12:28;;;;;;;13.32;9.32;;;15.80;97.60;;;;;;5032041;28;20111;-67
2021/03/29 10:15:11;;;;;;;9.82;8.52;;;16.00;96.90;;;;;;5035297;28;20056;-68
2021/03/29 10:17:38;;;;;;;9.70;8.68;;;16.20;96.40;;;;;;5021350;28;20408;-68
2021/03/29 10:20:10;;;;;;;9.77;8.68;;;16.30;95.90;;;;;;5031249;28;20041;-67
2021/03/29 10:22:38;;;;;;;10.45;9.07;;;16.40;95.30;;;;;;5030922;28;20075;-67
2021/03/29 10:25:15;;;;;;;11.02;9.07;;;16.50;94.30;;;;;;5029864;28;20057;-69
2021/03/29 10:27:50;;;;;;;11.60;8.93;;;16.70;94.20;;;;;;5031043;28;20171;-68
2021/03/29 10:30:19;;;;;;;10.65;9.02;;;16.90;93.80;;;;;;5031665;28;20057;-67
2021/03/29 10:32:58;;;;;;;12.32;9.27;;;16.80;92.60;;;;;;5029617;28;20041;-69
2021/03/29 10:35:27;;;;;;;9.70;8.60;;;17.00;92.20;;;;;;5024001;28;20054;-69
2021/03/29 10:37:57;;;;;;;10.63;9.52;;;17.30;91.30;;;;;;5030549;28;20507;-68
2021/03/29 10:40:24;;;;;;;10.43;8.77;;;17.40;91.10;;;;;;5013600;28;20564;-69
2021/03/29 10:42:51;;;;;;;10.23;9.07;;;17.40;91.20;;;;;;5031768;28;20096;-70
2021/03/29 10:45:19;;;;;;;10.23;9.27;;;17.40;90.60;;;;;;5031570;28;20503;-69
2021/03/29 10:47:47;;;;;;;10.35;9.00;;;17.50;90.50;;;;;;5039419;28;20124;-70
2021/03/29 10:50:16;;;;;;;10.20;9.13;;;17.70;90.40;;;;;;5030396;28;20061;-70
2021/03/29 10:52:43;;;;;;;18.60;8.93;;;18.00;89.30;;;;;;5030204;28;20176;-69
2021/03/29 10:55:11;;;;;;;12.30;9.48;;;18.00;87.50;;;;;;5030131;28;20565;-70
2021/03/29 10:57:38;;;;;;;10.07;9.15;;;18.10;87.20;;;;;;5030005;28;20041;-68
2021/03/29 11:00:07;;;;;;;11.75;9.00;;;18.10;87.20;;;;;;5028473;28;20065;-68
2021/03/29 11:02:35;;;;;;;9.82;9.00;;;18.40;85.10;;;;;;5028259;28;20103;-67
2021/03/29 11:05:07;;;;;;;10.35;9.35;;;18.20;83.40;;;;;;5030345;28;20451;-68
2021/03/29 11:07:36;;;;;;;10.75;9.45;;;18.20;82.00;;;;;;5031028;28;20041;-70
2021/03/29 11:10:04;;;;;;;10.82;9.70;;;18.40;80.40;;;;;;5030060;28;20045;-70
2021/03/29 11:12:31;;;;;;;11.50;9.23;;;18.40;80.20;;;;;;5031248;28;20091;-68
2021/03/29 11:14:58;;;;;;;10.93;9.73;;;18.70;80.40;;;;;;5030653;28;20052;-67
2021/03/29 11:17:28;;;;;;;10.70;9.70;;;19.00;80.00;;;;;;5030870;28;20103;-68
2021/03/29 11:19:55;;;;;;;10.55;9.27;;;19.10;79.70;;;;;;5030711;28;20048;-70
2021/03/29 11:22:22;;;;;;;10.48;9.43;;;19.50;79.10;;;;;;5029579;28;20049;-68
2021/03/29 11:24:49;;;;;;;12.75;9.77;;;19.50;75.80;;;;;;5030263;28;20515;-67
2021/03/29 11:27:16;;;;;;;10.10;9.30;;;19.60;74.50;;;;;;5045496;28;20045;-66
2021/03/29 11:29:43;;;;;;;9.82;8.90;;;19.80;70.60;;;;;;5030334;28;20380;-69
2021/03/29 11:32:09;;;;;;;9.85;9.02;;;19.70;70.70;;;;;;5030287;28;20508;-68
2021/03/29 11:34:36;;;;;;;10.75;9.73;;;19.90;70.60;;;;;;5030593;28;20045;-69
2021/03/29 11:37:03;;;;;;;10.38;9.48;;;20.20;69.40;;;;;;5028578;28;20037;-68
2021/03/29 11:39:31;;;;;;;9.55;8.85;;;20.00;68.70;;;;;;5008163;28;20523;-67
2021/03/29 11:41:57;;;;;;;9.82;9.02;;;20.20;67.60;;;;;;5029284;28;20081;-67
2021/03/29 11:44:24;;;;;;;10.20;9.20;;;20.40;67.70;;;;;;5031165;28;20045;-66
2021/03/29 11:46:52;;;;;;;9.80;9.00;;;20.40;67.10;;;;;;5030706;28;20465;-67
2021/03/29 11:49:19;;;;;;;10.10;9.27;;;20.30;67.70;;;;;;5030117;28;20447;-69
2021/03/29 11:51:46;;;;;;;10.45;9.25;;;20.30;68.70;;;;;;5031036;28;20053;-68
2021/03/29 11:54:14;;;;;;;10.60;9.52;;;20.30;68.30;;;;;;5023454;28;20045;-69
2021/03/29 11:56:42;;;;;;;10.00;9.20;;;20.60;67.90;;;;;;5027693;28;20107;-70
2021/03/29 11:59:09;;;;;;;10.35;9.32;;;21.00;67.10;;;;;;5029431;28;20492;-69
2021/03/29 12:04:12;;;;;;;10.60;9.35;;;21.50;64.00;;;;;;5030999;28;20452;-69
2021/03/29 12:06:54;;;;;;;11.68;9.55;;;21.10;64.00;;;;;;5028973;28;20053;-68
2021/03/29 12:09:32;;;;;;;10.27;9.48;;;21.00;63.90;;;;;;5017637;28;20104;-68
2021/03/29 12:11:59;;;;;;;9.52;8.73;;;20.90;64.30;;;;;;5029425;28;20077;-71
2021/03/29 12:14:35;;;;;;;10.18;9.25;;;21.10;64.70;;;;;;5033255;28;20049;-69
2021/03/29 12:17:05;;;;;;;10.35;9.20;;;21.50;65.50;;;;;;5019935;28;20041;-67
2021/03/29 12:19:32;;;;;;;10.40;9.40;;;21.60;64.70;;;;;;5029017;28;20041;-69
2021/03/29 12:22:15;;;;;;;10.63;9.52;;;21.70;63.70;;;;;;5029499;28;20429;-70
2021/03/29 12:24:46;;;;;;;10.30;9.40;;;21.80;63.60;;;;;;5027478;28;20053;-70
2021/03/29 12:27:14;;;;;;;10.35;9.52;;;22.10;63.00;;;;;;5044138;28;20052;-68
2021/03/29 12:29:43;;;;;;;9.75;8.90;;;22.10;61.70;;;;;;5029712;28;20478;-69
2021/03/29 12:32:18;;;;;;;10.50;9.57;;;22.20;61.80;;;;;;5046321;28;20056;-68
2021/03/29 12:34:47;;;;;;;10.30;9.05;;;22.30;61.20;;;;;;5046727;28;20522;-69
2021/03/29 12:37:16;;;;;;;10.40;9.40;;;22.30;60.70;;;;;;5030621;28;20407;-68
2021/03/29 12:40:05;;;;;;;11.20;10.07;;;22.70;60.80;;;;;;5030893;28;20066;-69
2021/03/29 12:42:37;;;;;;;10.60;9.70;;;22.90;60.70;;;;;;5030255;28;20045;-68
2021/03/29 12:45:05;;;;;;;;;;;23.30;60.10;;;;;;5031504;28;20080;-69
2021/03/29 12:47:36;;;;;;;13.10;9.65;;;22.90;60.30;;;;;;5029275;28;19929;-68
2021/03/29 12:50:11;;;;;;;11.45;9.70;;;23.20;61.00;;;;;;5044984;28;20042;-70
2021/03/29 12:52:41;;;;;;;10.98;9.45;;;23.40;60.80;;;;;;5029410;28;20053;-68
2021/03/29 12:55:12;;;;;;;10.50;9.50;;;23.80;59.50;;;;;;5032841;28;20045;-70
2021/03/29 12:57:39;;;;;;;10.15;9.35;;;23.80;59.20;;;;;;5032757;28;20056;-69
2021/03/29 13:00:09;;;;;;;10.00;9.10;;;24.20;59.30;;;;;;5028660;28;20050;-68
2021/03/29 13:02:36;;;;;;;10.23;9.15;;;24.30;59.10;;;;;;5032035;28;20065;-70